sensor_id;sensor_type;location;lat;lon;timestamp;P1;durP1;ratioP1;P2;durP2;ratioP2
15202;SDS011;7702;51.046;5.184;2023-04-01T00:01:40;3.10;;;1.00;;
15202;SDS011;7702;51.046;5.184;2023-04-01T00:04:06;4.53;;;1.10;;
15202;SDS011;7702;51.046;5.184;2023-04-01T00:06:31;4.30;;;1.30;;
15202;SDS011;7702;51.046;5.184;2023-04-01T00:08:57;3.13;;;1.10;;
15202;SDS011;7702;51.046;5.184;2023-04-01T00:11:23;5.50;;;1.40;;
15202;SDS011;7702;51.046;5.184;2023-04-01T00:13:49;3.67;;;1.07;;
15202;SDS011;7702;51.046;5.184;2023-04-01T00:16:15;3.37;;;1.17;;
15202;SDS011;7702;51.046;5.184;2023-04-01T00:18:41;3.57;;;1.17;;
15202;SDS011;7702;51.046;5.184;2023-04-01T00:21:07;2.27;;;1.00;;
15202;SDS011;7702;51.046;5.184;2023-04-01T00:23:33;4.10;;;0.90;;
15202;SDS011;7702;51.046;5.184;2023-04-01T00:26:00;2.53;;;0.87;;
15202;SDS011;7702;51.046;5.184;2023-04-01T00:28:26;5.03;;;0.90;;
15202;SDS011;7702;51.046;5.184;2023-04-01T00:30:52;4.07;;;0.90;;
15202;SDS011;7702;51.046;5.184;2023-04-01T00:33:18;2.60;;;0.80;;
15202;SDS011;7702;51.046;5.184;2023-04-01T00:35:45;2.70;;;1.30;;
15202;SDS011;7702;51.046;5.184;2023-04-01T00:38:11;2.53;;;0.80;;
15202;SDS011;7702;51.046;5.184;2023-04-01T00:40:42;4.10;;;0.90;;
15202;SDS011;7702;51.046;5.184;2023-04-01T00:43:13;3.53;;;0.90;;
15202;SDS011;7702;51.046;5.184;2023-04-01T00:45:43;3.47;;;0.70;;
15202;SDS011;7702;51.046;5.184;2023-04-01T00:48:14;2.50;;;0.60;;
15202;SDS011;7702;51.046;5.184;2023-04-01T00:50:40;1.40;;;0.77;;
15202;SDS011;7702;51.046;5.184;2023-04-01T00:53:09;4.37;;;1.07;;
15202;SDS011;7702;51.046;5.184;2023-04-01T00:55:37;3.00;;;0.90;;
15202;SDS011;7702;51.046;5.184;2023-04-01T00:58:07;2.40;;;1.30;;
15202;SDS011;7702;51.046;5.184;2023-04-01T01:00:39;1.70;;;0.70;;
15202;SDS011;7702;51.046;5.184;2023-04-01T01:03:07;3.80;;;1.40;;
15202;SDS011;7702;51.046;5.184;2023-04-01T01:05:58;1.60;;;0.77;;
15202;SDS011;7702;51.046;5.184;2023-04-01T01:08:23;2.43;;;0.90;;
15202;SDS011;7702;51.046;5.184;2023-04-01T01:11:08;1.80;;;0.70;;
15202;SDS011;7702;51.046;5.184;2023-04-01T01:13:43;3.87;;;0.90;;
15202;SDS011;7702;51.046;5.184;2023-04-01T01:21:52;1.93;;;1.03;;
15202;SDS011;7702;51.046;5.184;2023-04-01T01:27:02;3.00;;;0.93;;
15202;SDS011;7702;51.046;5.184;2023-04-01T01:29:45;3.37;;;0.93;;
15202;SDS011;7702;51.046;5.184;2023-04-01T01:33:04;3.37;;;1.00;;
15202;SDS011;7702;51.046;5.184;2023-04-01T01:38:13;1.80;;;0.77;;
15202;SDS011;7702;51.046;5.184;2023-04-01T01:40:42;1.57;;;0.60;;
15202;SDS011;7702;51.046;5.184;2023-04-01T01:43:11;2.87;;;0.90;;
15202;SDS011;7702;51.046;5.184;2023-04-01T01:45:44;1.23;;;0.80;;
15202;SDS011;7702;51.046;5.184;2023-04-01T01:48:13;2.30;;;0.90;;
15202;SDS011;7702;51.046;5.184;2023-04-01T01:50:41;2.10;;;1.17;;
15202;SDS011;7702;51.046;5.184;2023-04-01T01:53:11;1.90;;;1.33;;
15202;SDS011;7702;51.046;5.184;2023-04-01T01:55:39;2.83;;;1.10;;
15202;SDS011;7702;51.046;5.184;2023-04-01T01:58:14;2.03;;;1.03;;
15202;SDS011;7702;51.046;5.184;2023-04-01T02:00:42;1.27;;;0.90;;
15202;SDS011;7702;51.046;5.184;2023-04-01T02:03:12;1.90;;;1.00;;
15202;SDS011;7702;51.046;5.184;2023-04-01T02:05:40;2.93;;;1.17;;
15202;SDS011;7702;51.046;5.184;2023-04-01T02:10:40;2.50;;;0.90;;
15202;SDS011;7702;51.046;5.184;2023-04-01T02:13:18;3.80;;;1.47;;
15202;SDS011;7702;51.046;5.184;2023-04-01T02:15:52;2.40;;;1.40;;
15202;SDS011;7702;51.046;5.184;2023-04-01T02:18:20;2.13;;;1.23;;
15202;SDS011;7702;51.046;5.184;2023-04-01T02:20:47;3.60;;;1.50;;
15202;SDS011;7702;51.046;5.184;2023-04-01T02:23:14;2.53;;;1.50;;
15202;SDS011;7702;51.046;5.184;2023-04-01T02:25:41;4.07;;;1.60;;
15202;SDS011;7702;51.046;5.184;2023-04-01T02:28:08;3.50;;;1.80;;
15202;SDS011;7702;51.046;5.184;2023-04-01T02:30:35;2.00;;;1.90;;
15202;SDS011;7702;51.046;5.184;2023-04-01T02:33:03;2.67;;;1.80;;
15202;SDS011;7702;51.046;5.184;2023-04-01T02:35:32;5.10;;;1.63;;
15202;SDS011;7702;51.046;5.184;2023-04-01T02:38:02;3.67;;;1.67;;
15202;SDS011;7702;51.046;5.184;2023-04-01T02:40:28;5.93;;;1.93;;
15202;SDS011;7702;51.046;5.184;2023-04-01T02:42:54;5.37;;;2.23;;
15202;SDS011;7702;51.046;5.184;2023-04-01T02:45:20;1.87;;;1.67;;
15202;SDS011;7702;51.046;5.184;2023-04-01T02:47:46;4.10;;;1.70;;
15202;SDS011;7702;51.046;5.184;2023-04-01T02:50:11;3.63;;;1.73;;
15202;SDS011;7702;51.046;5.184;2023-04-01T02:52:37;2.33;;;1.53;;
15202;SDS011;7702;51.046;5.184;2023-04-01T02:55:03;2.53;;;1.60;;
15202;SDS011;7702;51.046;5.184;2023-04-01T02:57:30;5.67;;;2.20;;
15202;SDS011;7702;51.046;5.184;2023-04-01T02:59:56;3.03;;;1.53;;
15202;SDS011;7702;51.046;5.184;2023-04-01T03:02:21;5.03;;;2.03;;
15202;SDS011;7702;51.046;5.184;2023-04-01T03:04:47;3.17;;;1.70;;
15202;SDS011;7702;51.046;5.184;2023-04-01T03:07:13;3.90;;;2.17;;
15202;SDS011;7702;51.046;5.184;2023-04-01T03:09:39;3.23;;;2.20;;
15202;SDS011;7702;51.046;5.184;2023-04-01T03:12:05;3.70;;;2.20;;
15202;SDS011;7702;51.046;5.184;2023-04-01T03:14:31;6.57;;;2.40;;
15202;SDS011;7702;51.046;5.184;2023-04-01T03:16:57;2.40;;;2.20;;
15202;SDS011;7702;51.046;5.184;2023-04-01T03:19:23;3.17;;;2.00;;
15202;SDS011;7702;51.046;5.184;2023-04-01T03:21:48;4.47;;;2.57;;
15202;SDS011;7702;51.046;5.184;2023-04-01T03:24:14;4.43;;;2.20;;
15202;SDS011;7702;51.046;5.184;2023-04-01T03:26:40;3.93;;;2.20;;
15202;SDS011;7702;51.046;5.184;2023-04-01T03:29:05;4.50;;;2.10;;
15202;SDS011;7702;51.046;5.184;2023-04-01T03:31:31;3.60;;;2.67;;
15202;SDS011;7702;51.046;5.184;2023-04-01T03:33:57;6.00;;;2.37;;
15202;SDS011;7702;51.046;5.184;2023-04-01T03:36:22;4.70;;;1.97;;
15202;SDS011;7702;51.046;5.184;2023-04-01T03:38:48;3.23;;;2.07;;
15202;SDS011;7702;51.046;5.184;2023-04-01T03:41:14;6.47;;;2.43;;
15202;SDS011;7702;51.046;5.184;2023-04-01T03:43:41;4.23;;;2.30;;
15202;SDS011;7702;51.046;5.184;2023-04-01T03:46:07;6.17;;;2.33;;
15202;SDS011;7702;51.046;5.184;2023-04-01T03:48:33;4.93;;;2.17;;
15202;SDS011;7702;51.046;5.184;2023-04-01T03:50:58;5.33;;;2.63;;
15202;SDS011;7702;51.046;5.184;2023-04-01T03:53:24;3.90;;;2.00;;
15202;SDS011;7702;51.046;5.184;2023-04-01T03:55:50;5.27;;;2.00;;
15202;SDS011;7702;51.046;5.184;2023-04-01T03:58:16;4.30;;;2.30;;
15202;SDS011;7702;51.046;5.184;2023-04-01T04:00:42;2.57;;;1.97;;
15202;SDS011;7702;51.046;5.184;2023-04-01T04:03:08;4.70;;;1.97;;
15202;SDS011;7702;51.046;5.184;2023-04-01T04:05:34;3.23;;;2.27;;
15202;SDS011;7702;51.046;5.184;2023-04-01T04:08:00;6.13;;;2.07;;
15202;SDS011;7702;51.046;5.184;2023-04-01T04:10:25;2.23;;;1.87;;
15202;SDS011;7702;51.046;5.184;2023-04-01T04:12:51;2.60;;;2.10;;
15202;SDS011;7702;51.046;5.184;2023-04-01T04:15:18;2.40;;;1.70;;
15202;SDS011;7702;51.046;5.184;2023-04-01T04:17:44;2.90;;;1.83;;
15202;SDS011;7702;51.046;5.184;2023-04-01T04:20:10;3.47;;;1.73;;
15202;SDS011;7702;51.046;5.184;2023-04-01T04:22:36;3.00;;;1.50;;
15202;SDS011;7702;51.046;5.184;2023-04-01T04:25:02;2.57;;;1.90;;
15202;SDS011;7702;51.046;5.184;2023-04-01T04:27:27;3.20;;;1.83;;
15202;SDS011;7702;51.046;5.184;2023-04-01T04:29:53;2.97;;;1.83;;
15202;SDS011;7702;51.046;5.184;2023-04-01T04:32:19;4.43;;;2.13;;
15202;SDS011;7702;51.046;5.184;2023-04-01T04:34:45;3.97;;;2.00;;
15202;SDS011;7702;51.046;5.184;2023-04-01T04:37:11;2.83;;;2.57;;
15202;SDS011;7702;51.046;5.184;2023-04-01T04:39:37;2.33;;;2.20;;
15202;SDS011;7702;51.046;5.184;2023-04-01T04:42:02;2.70;;;2.50;;
15202;SDS011;7702;51.046;5.184;2023-04-01T04:44:28;3.53;;;2.43;;
15202;SDS011;7702;51.046;5.184;2023-04-01T04:46:54;2.97;;;2.77;;
15202;SDS011;7702;51.046;5.184;2023-04-01T04:49:20;3.03;;;2.33;;
15202;SDS011;7702;51.046;5.184;2023-04-01T04:51:45;3.10;;;2.40;;
15202;SDS011;7702;51.046;5.184;2023-04-01T04:54:11;3.50;;;2.53;;
15202;SDS011;7702;51.046;5.184;2023-04-01T04:56:37;2.87;;;2.67;;
15202;SDS011;7702;51.046;5.184;2023-04-01T04:59:03;3.13;;;2.53;;
15202;SDS011;7702;51.046;5.184;2023-04-01T05:01:30;4.17;;;2.60;;
15202;SDS011;7702;51.046;5.184;2023-04-01T05:03:55;2.67;;;2.47;;
15202;SDS011;7702;51.046;5.184;2023-04-01T05:06:21;2.90;;;2.63;;
15202;SDS011;7702;51.046;5.184;2023-04-01T05:08:47;2.97;;;2.67;;
15202;SDS011;7702;51.046;5.184;2023-04-01T05:11:14;3.93;;;3.10;;
15202;SDS011;7702;51.046;5.184;2023-04-01T05:13:41;4.37;;;3.10;;
15202;SDS011;7702;51.046;5.184;2023-04-01T05:16:11;3.70;;;3.37;;
15202;SDS011;7702;51.046;5.184;2023-04-01T05:18:38;3.70;;;3.23;;
15202;SDS011;7702;51.046;5.184;2023-04-01T05:21:04;4.83;;;3.43;;
15202;SDS011;7702;51.046;5.184;2023-04-01T05:23:32;3.37;;;3.07;;
15202;SDS011;7702;51.046;5.184;2023-04-01T05:25:58;4.63;;;3.47;;
15202;SDS011;7702;51.046;5.184;2023-04-01T05:28:27;3.47;;;3.17;;
15202;SDS011;7702;51.046;5.184;2023-04-01T05:30:53;4.03;;;3.67;;
15202;SDS011;7702;51.046;5.184;2023-04-01T05:33:18;5.50;;;3.90;;
15202;SDS011;7702;51.046;5.184;2023-04-01T05:35:44;3.60;;;3.30;;
15202;SDS011;7702;51.046;5.184;2023-04-01T05:38:10;4.03;;;3.63;;
15202;SDS011;7702;51.046;5.184;2023-04-01T05:40:36;4.63;;;3.97;;
15202;SDS011;7702;51.046;5.184;2023-04-01T05:43:01;4.67;;;4.27;;
15202;SDS011;7702;51.046;5.184;2023-04-01T05:45:27;6.57;;;4.60;;
15202;SDS011;7702;51.046;5.184;2023-04-01T05:47:53;5.73;;;4.40;;
15202;SDS011;7702;51.046;5.184;2023-04-01T05:50:19;5.53;;;4.43;;
15202;SDS011;7702;51.046;5.184;2023-04-01T05:52:44;5.20;;;4.60;;
15202;SDS011;7702;51.046;5.184;2023-04-01T05:55:11;5.00;;;4.50;;
15202;SDS011;7702;51.046;5.184;2023-04-01T05:57:37;5.23;;;4.73;;
15202;SDS011;7702;51.046;5.184;2023-04-01T06:00:03;5.47;;;4.90;;
15202;SDS011;7702;51.046;5.184;2023-04-01T06:02:29;6.20;;;4.90;;
15202;SDS011;7702;51.046;5.184;2023-04-01T06:05:29;5.93;;;4.97;;
15202;SDS011;7702;51.046;5.184;2023-04-01T06:07:51;5.77;;;4.53;;
15202;SDS011;7702;51.046;5.184;2023-04-01T06:10:23;4.90;;;4.40;;
15202;SDS011;7702;51.046;5.184;2023-04-01T06:16:58;5.40;;;4.90;;
15202;SDS011;7702;51.046;5.184;2023-04-01T06:22:03;4.53;;;4.13;;
15202;SDS011;7702;51.046;5.184;2023-04-01T06:25:02;5.23;;;4.63;;
15202;SDS011;7702;51.046;5.184;2023-04-01T06:30:31;5.43;;;4.93;;
15202;SDS011;7702;51.046;5.184;2023-04-01T06:50:24;3.00;;;2.70;;
15202;SDS011;7702;51.046;5.184;2023-04-01T06:53:18;2.90;;;2.70;;
15202;SDS011;7702;51.046;5.184;2023-04-01T06:56:02;5.57;;;2.90;;
15202;SDS011;7702;51.046;5.184;2023-04-01T06:58:46;3.83;;;3.30;;
15202;SDS011;7702;51.046;5.184;2023-04-01T07:01:56;3.77;;;3.07;;
15202;SDS011;7702;51.046;5.184;2023-04-01T07:04:30;3.37;;;3.17;;
15202;SDS011;7702;51.046;5.184;2023-04-01T07:07:01;3.87;;;3.60;;
15202;SDS011;7702;51.046;5.184;2023-04-01T07:09:40;3.70;;;3.40;;
15202;SDS011;7702;51.046;5.184;2023-04-01T07:12:43;3.40;;;3.20;;
15202;SDS011;7702;51.046;5.184;2023-04-01T07:15:13;5.03;;;3.50;;
15202;SDS011;7702;51.046;5.184;2023-04-01T07:18:21;3.77;;;3.47;;
15202;SDS011;7702;51.046;5.184;2023-04-01T07:20:50;3.93;;;3.63;;
15202;SDS011;7702;51.046;5.184;2023-04-01T07:23:28;3.60;;;3.40;;
15202;SDS011;7702;51.046;5.184;2023-04-01T07:26:06;3.30;;;3.10;;
15202;SDS011;7702;51.046;5.184;2023-04-01T07:28:42;3.93;;;3.73;;
15202;SDS011;7702;51.046;5.184;2023-04-01T07:51:02;2.60;;;1.93;;
15202;SDS011;7702;51.046;5.184;2023-04-01T07:56:05;2.47;;;2.20;;
15202;SDS011;7702;51.046;5.184;2023-04-01T08:09:48;1.90;;;1.80;;
15202;SDS011;7702;51.046;5.184;2023-04-01T08:12:27;1.80;;;1.70;;
15202;SDS011;7702;51.046;5.184;2023-04-01T08:23:30;1.87;;;1.83;;
15202;SDS011;7702;51.046;5.184;2023-04-01T08:28:32;2.60;;;2.40;;
15202;SDS011;7702;51.046;5.184;2023-04-01T08:31:12;2.80;;;2.60;;
15202;SDS011;7702;51.046;5.184;2023-04-01T08:33:42;2.30;;;2.20;;
15202;SDS011;7702;51.046;5.184;2023-04-01T08:36:12;2.33;;;2.23;;
15202;SDS011;7702;51.046;5.184;2023-04-01T08:38:43;2.80;;;2.60;;
15202;SDS011;7702;51.046;5.184;2023-04-01T08:52:37;2.73;;;2.53;;
15202;SDS011;7702;51.046;5.184;2023-04-01T08:58:13;2.87;;;2.67;;
15202;SDS011;7702;51.046;5.184;2023-04-01T09:00:46;2.97;;;2.77;;
15202;SDS011;7702;51.046;5.184;2023-04-01T09:22:08;3.77;;;3.50;;
15202;SDS011;7702;51.046;5.184;2023-04-01T09:27:56;4.23;;;4.03;;
15202;SDS011;7702;51.046;5.184;2023-04-01T09:44:36;2.50;;;2.40;;
15202;SDS011;7702;51.046;5.184;2023-04-01T09:52:43;2.67;;;2.53;;
15202;SDS011;7702;51.046;5.184;2023-04-01T10:21:18;2.80;;;2.60;;
15202;SDS011;7702;51.046;5.184;2023-04-01T10:24:00;3.27;;;2.97;;
15202;SDS011;7702;51.046;5.184;2023-04-01T10:35:41;3.00;;;2.67;;
15202;SDS011;7702;51.046;5.184;2023-04-01T10:44:31;3.50;;;3.20;;
15202;SDS011;7702;51.046;5.184;2023-04-01T10:50:32;3.77;;;3.47;;
15202;SDS011;7702;51.046;5.184;2023-04-01T10:58:54;4.43;;;4.13;;
15202;SDS011;7702;51.046;5.184;2023-04-01T11:01:45;4.00;;;3.67;;
15202;SDS011;7702;51.046;5.184;2023-04-01T11:30:53;3.57;;;3.27;;
15202;SDS011;7702;51.046;5.184;2023-04-01T11:44:24;3.37;;;3.07;;
15202;SDS011;7702;51.046;5.184;2023-04-01T11:54:56;3.43;;;2.93;;
15202;SDS011;7702;51.046;5.184;2023-04-01T11:57:46;3.03;;;2.67;;
15202;SDS011;7702;51.046;5.184;2023-04-01T12:11:48;3.43;;;3.10;;
15202;SDS011;7702;51.046;5.184;2023-04-01T12:14:35;2.90;;;2.60;;
15202;SDS011;7702;51.046;5.184;2023-04-01T12:19:56;1.90;;;1.80;;
15202;SDS011;7702;51.046;5.184;2023-04-01T12:31:03;2.30;;;2.10;;
15202;SDS011;7702;51.046;5.184;2023-04-01T12:33:49;3.80;;;2.70;;
15202;SDS011;7702;51.046;5.184;2023-04-01T12:39:39;4.10;;;2.93;;
15202;SDS011;7702;51.046;5.184;2023-04-01T12:50:54;3.90;;;3.50;;
15202;SDS011;7702;51.046;5.184;2023-04-01T12:54:48;3.87;;;2.50;;
15202;SDS011;7702;51.046;5.184;2023-04-01T12:59:42;4.10;;;3.70;;
15202;SDS011;7702;51.046;5.184;2023-04-01T13:05:00;4.00;;;3.07;;
15202;SDS011;7702;51.046;5.184;2023-04-01T13:13:34;3.03;;;2.77;;
15202;SDS011;7702;51.046;5.184;2023-04-01T13:19:02;5.07;;;2.90;;
15202;SDS011;7702;51.046;5.184;2023-04-01T13:33:06;3.13;;;2.83;;
15202;SDS011;7702;51.046;5.184;2023-04-01T13:39:13;3.60;;;3.30;;
15202;SDS011;7702;51.046;5.184;2023-04-01T13:44:41;5.60;;;4.03;;
15202;SDS011;7702;51.046;5.184;2023-04-01T13:47:15;3.73;;;2.63;;
15202;SDS011;7702;51.046;5.184;2023-04-01T14:06:49;1.87;;;1.77;;
15202;SDS011;7702;51.046;5.184;2023-04-01T14:15:39;4.50;;;2.37;;
15202;SDS011;7702;51.046;5.184;2023-04-01T14:18:16;3.30;;;3.00;;
15202;SDS011;7702;51.046;5.184;2023-04-01T14:21:38;2.37;;;2.13;;
15202;SDS011;7702;51.046;5.184;2023-04-01T14:49:51;2.83;;;2.50;;
15202;SDS011;7702;51.046;5.184;2023-04-01T14:52:28;3.07;;;2.83;;
15202;SDS011;7702;51.046;5.184;2023-04-01T14:54:59;3.43;;;2.73;;
15202;SDS011;7702;51.046;5.184;2023-04-01T14:57:29;3.13;;;2.93;;
15202;SDS011;7702;51.046;5.184;2023-04-01T15:00:12;3.87;;;3.43;;
15202;SDS011;7702;51.046;5.184;2023-04-01T15:05:27;5.27;;;4.73;;
15202;SDS011;7702;51.046;5.184;2023-04-01T15:10:58;5.57;;;4.70;;
15202;SDS011;7702;51.046;5.184;2023-04-01T15:21:48;6.83;;;5.10;;
15202;SDS011;7702;51.046;5.184;2023-04-01T15:24:25;6.33;;;5.30;;
15202;SDS011;7702;51.046;5.184;2023-04-01T15:32:21;7.13;;;5.10;;
15202;SDS011;7702;51.046;5.184;2023-04-01T15:34:59;5.73;;;5.33;;
15202;SDS011;7702;51.046;5.184;2023-04-01T15:45:36;5.13;;;4.63;;
15202;SDS011;7702;51.046;5.184;2023-04-01T15:48:13;5.43;;;5.03;;
15202;SDS011;7702;51.046;5.184;2023-04-01T15:53:35;5.37;;;4.97;;
15202;SDS011;7702;51.046;5.184;2023-04-01T15:58:43;4.70;;;4.40;;
15202;SDS011;7702;51.046;5.184;2023-04-01T16:01:46;4.93;;;4.50;;
15202;SDS011;7702;51.046;5.184;2023-04-01T16:21:14;3.13;;;2.23;;
15202;SDS011;7702;51.046;5.184;2023-04-01T16:23:30;3.97;;;3.03;;
15202;SDS011;7702;51.046;5.184;2023-04-01T16:29:16;2.50;;;2.30;;
15202;SDS011;7702;51.046;5.184;2023-04-01T16:38:09;3.00;;;2.13;;
15202;SDS011;7702;51.046;5.184;2023-04-01T16:43:42;2.17;;;1.97;;
15202;SDS011;7702;51.046;5.184;2023-04-01T16:54:18;2.50;;;2.10;;
15202;SDS011;7702;51.046;5.184;2023-04-01T17:08:30;3.70;;;1.70;;
15202;SDS011;7702;51.046;5.184;2023-04-01T17:17:12;2.97;;;1.87;;
15202;SDS011;7702;51.046;5.184;2023-04-01T17:42:09;3.63;;;2.10;;
15202;SDS011;7702;51.046;5.184;2023-04-01T17:44:59;2.50;;;2.30;;
15202;SDS011;7702;51.046;5.184;2023-04-01T18:03:59;3.10;;;2.90;;
15202;SDS011;7702;51.046;5.184;2023-04-01T18:06:34;3.77;;;3.13;;
15202;SDS011;7702;51.046;5.184;2023-04-01T18:09:20;3.30;;;3.03;;
15202;SDS011;7702;51.046;5.184;2023-04-01T18:20:40;4.50;;;4.10;;
15202;SDS011;7702;51.046;5.184;2023-04-01T18:23:23;5.37;;;4.70;;
15202;SDS011;7702;51.046;5.184;2023-04-01T18:26:13;6.47;;;4.40;;
15202;SDS011;7702;51.046;5.184;2023-04-01T18:29:04;5.17;;;4.67;;
15202;SDS011;7702;51.046;5.184;2023-04-01T18:40:24;6.67;;;5.97;;
15202;SDS011;7702;51.046;5.184;2023-04-01T18:43:00;8.13;;;7.03;;
15202;SDS011;7702;51.046;5.184;2023-04-01T18:51:40;8.60;;;7.80;;
15202;SDS011;7702;51.046;5.184;2023-04-01T18:57:12;9.67;;;8.77;;
15202;SDS011;7702;51.046;5.184;2023-04-01T18:59:42;9.77;;;8.27;;
15202;SDS011;7702;51.046;5.184;2023-04-01T19:05:02;11.17;;;10.03;;
15202;SDS011;7702;51.046;5.184;2023-04-01T19:07:51;11.07;;;9.87;;
15202;SDS011;7702;51.046;5.184;2023-04-01T19:15:52;12.17;;;10.17;;
15202;SDS011;7702;51.046;5.184;2023-04-01T19:18:47;10.30;;;9.20;;
15202;SDS011;7702;51.046;5.184;2023-04-01T19:21:29;12.27;;;10.23;;
15202;SDS011;7702;51.046;5.184;2023-04-01T19:26:48;10.77;;;8.80;;
15202;SDS011;7702;51.046;5.184;2023-04-01T19:50:40;10.83;;;9.70;;
15202;SDS011;7702;51.046;5.184;2023-04-01T19:53:22;10.97;;;9.23;;
15202;SDS011;7702;51.046;5.184;2023-04-01T20:02:14;11.77;;;10.43;;
15202;SDS011;7702;51.046;5.184;2023-04-01T20:07:07;14.50;;;10.97;;
15202;SDS011;7702;51.046;5.184;2023-04-01T20:12:49;14.07;;;12.13;;
15202;SDS011;7702;51.046;5.184;2023-04-01T20:15:37;12.43;;;10.93;;
15202;SDS011;7702;51.046;5.184;2023-04-01T20:18:31;17.53;;;12.43;;
15202;SDS011;7702;51.046;5.184;2023-04-01T20:26:58;20.50;;;15.77;;
15202;SDS011;7702;51.046;5.184;2023-04-01T20:29:35;18.93;;;16.03;;
15202;SDS011;7702;51.046;5.184;2023-04-01T20:40:50;18.77;;;14.47;;
15202;SDS011;7702;51.046;5.184;2023-04-01T20:43:24;16.57;;;14.20;;
15202;SDS011;7702;51.046;5.184;2023-04-01T20:46:19;16.80;;;13.33;;
15202;SDS011;7702;51.046;5.184;2023-04-01T20:51:24;17.63;;;14.23;;
15202;SDS011;7702;51.046;5.184;2023-04-01T21:32:05;15.67;;;13.23;;
15202;SDS011;7702;51.046;5.184;2023-04-01T21:34:42;16.60;;;14.07;;
15202;SDS011;7702;51.046;5.184;2023-04-01T21:42:56;18.07;;;13.40;;
15202;SDS011;7702;51.046;5.184;2023-04-01T21:48:52;15.30;;;12.23;;
15202;SDS011;7702;51.046;5.184;2023-04-01T22:05:18;16.13;;;12.80;;
15202;SDS011;7702;51.046;5.184;2023-04-01T22:10:47;17.23;;;12.97;;
15202;SDS011;7702;51.046;5.184;2023-04-01T22:13:35;14.93;;;11.97;;
15202;SDS011;7702;51.046;5.184;2023-04-01T22:19:04;13.27;;;11.20;;
15202;SDS011;7702;51.046;5.184;2023-04-01T22:22:08;11.97;;;10.57;;
15202;SDS011;7702;51.046;5.184;2023-04-01T22:27:45;10.47;;;9.17;;
15202;SDS011;7702;51.046;5.184;2023-04-01T22:30:22;8.53;;;7.63;;
15202;SDS011;7702;51.046;5.184;2023-04-01T22:32:57;8.27;;;6.53;;
15202;SDS011;7702;51.046;5.184;2023-04-01T22:40:56;7.80;;;7.00;;
15202;SDS011;7702;51.046;5.184;2023-04-01T22:43:42;9.30;;;8.33;;
15202;SDS011;7702;51.046;5.184;2023-04-01T22:51:45;13.93;;;10.67;;
15202;SDS011;7702;51.046;5.184;2023-04-01T22:56:49;14.57;;;11.63;;
15202;SDS011;7702;51.046;5.184;2023-04-01T23:02:18;13.70;;;11.40;;
15202;SDS011;7702;51.046;5.184;2023-04-01T23:04:54;13.30;;;10.70;;
15202;SDS011;7702;51.046;5.184;2023-04-01T23:09:59;11.03;;;9.40;;
15202;SDS011;7702;51.046;5.184;2023-04-01T23:12:28;8.30;;;7.40;;
15202;SDS011;7702;51.046;5.184;2023-04-01T23:15:00;8.67;;;7.10;;
15202;SDS011;7702;51.046;5.184;2023-04-01T23:22:46;17.30;;;13.07;;
15202;SDS011;7702;51.046;5.184;2023-04-01T23:25:27;16.17;;;13.37;;
15202;SDS011;7702;51.046;5.184;2023-04-01T23:33:10;12.43;;;10.90;;
15202;SDS011;7702;51.046;5.184;2023-04-01T23:36:16;12.67;;;10.67;;
15202;SDS011;7702;51.046;5.184;2023-04-01T23:38:40;9.07;;;7.97;;
15202;SDS011;7702;51.046;5.184;2023-04-01T23:41:07;9.30;;;8.30;;
15202;SDS011;7702;51.046;5.184;2023-04-01T23:43:43;10.00;;;8.47;;
15202;SDS011;7702;51.046;5.184;2023-04-01T23:46:10;9.67;;;8.67;;
15202;SDS011;7702;51.046;5.184;2023-04-01T23:48:42;9.73;;;8.20;;
15202;SDS011;7702;51.046;5.184;2023-04-01T23:51:17;9.60;;;8.50;;
15202;SDS011;7702;51.046;5.184;2023-04-01T23:53:54;10.27;;;8.70;;
15202;SDS011;7702;51.046;5.184;2023-04-01T23:56:37;10.80;;;9.57;;
15202;SDS011;7702;51.046;5.184;2023-04-01T23:59:09;10.33;;;8.87;;
